sensor_id;sensor_type;location;lat;lon;timestamp;pressure;altitude;pressure_sealevel;temperature;humidity
61908;BME280;47864;52.526;19.672;2022-08-19T00:01:45;100503.38;;;21.45;100.00
61908;BME280;47864;52.526;19.672;2022-08-19T00:03:54;100501.78;;;21.38;100.00
61908;BME280;47864;52.526;19.672;2022-08-19T00:05:55;100509.28;;;21.36;100.00
61908;BME280;47864;52.526;19.672;2022-08-19T00:07:57;100508.13;;;21.25;100.00
61908;BME280;47864;52.526;19.672;2022-08-19T00:09:59;100502.53;;;21.26;100.00
61908;BME280;47864;52.526;19.672;2022-08-19T00:12:01;100503.56;;;21.25;100.00
61908;BME280;47864;52.526;19.672;2022-08-19T00:14:05;100500.00;;;21.32;100.00
61908;BME280;47864;52.526;19.672;2022-08-19T00:16:08;100504.88;;;21.41;100.00
61908;BME280;47864;52.526;19.672;2022-08-19T00:18:10;100509.16;;;21.49;100.00
61908;BME280;47864;52.526;19.672;2022-08-19T00:20:15;100512.69;;;21.49;100.00
61908;BME280;47864;52.526;19.672;2022-08-19T00:22:17;100516.13;;;21.38;100.00
61908;BME280;47864;52.526;19.672;2022-08-19T00:24:19;100511.16;;;21.35;100.00
61908;BME280;47864;52.526;19.672;2022-08-19T00:26:21;100507.78;;;21.40;100.00
61908;BME280;47864;52.526;19.672;2022-08-19T00:28:23;100509.19;;;21.42;100.00
61908;BME280;47864;52.526;19.672;2022-08-19T00:30:26;100515.00;;;21.46;100.00
61908;BME280;47864;52.526;19.672;2022-08-19T00:32:28;100509.81;;;21.44;100.00
61908;BME280;47864;52.526;19.672;2022-08-19T00:34:31;100502.44;;;21.33;100.00
61908;BME280;47864;52.526;19.672;2022-08-19T00:36:33;100500.13;;;21.37;100.00
61908;BME280;47864;52.526;19.672;2022-08-19T00:38:36;100497.66;;;21.35;100.00
61908;BME280;47864;52.526;19.672;2022-08-19T00:40:39;100497.72;;;21.29;100.00
61908;BME280;47864;52.526;19.672;2022-08-19T00:42:41;100491.59;;;21.21;100.00
61908;BME280;47864;52.526;19.672;2022-08-19T00:44:43;100497.94;;;21.27;100.00
61908;BME280;47864;52.526;19.672;2022-08-19T00:46:46;100490.31;;;21.24;100.00
61908;BME280;47864;52.526;19.672;2022-08-19T00:49:00;100499.69;;;21.21;100.00
61908;BME280;47864;52.526;19.672;2022-08-19T00:51:04;100496.59;;;21.18;100.00
61908;BME280;47864;52.526;19.672;2022-08-19T00:53:07;100499.53;;;21.10;100.00
61908;BME280;47864;52.526;19.672;2022-08-19T00:55:09;100495.56;;;21.12;100.00
61908;BME280;47864;52.526;19.672;2022-08-19T00:57:15;100489.44;;;21.05;100.00
61908;BME280;47864;52.526;19.672;2022-08-19T00:59:18;100496.69;;;21.05;100.00
61908;BME280;47864;52.526;19.672;2022-08-19T01:01:42;100492.56;;;21.02;100.00
61908;BME280;47864;52.526;19.672;2022-08-19T01:03:45;100493.06;;;20.93;100.00
61908;BME280;47864;52.526;19.672;2022-08-19T01:05:58;100501.31;;;20.98;100.00
61908;BME280;47864;52.526;19.672;2022-08-19T01:08:03;100499.66;;;20.97;100.00
61908;BME280;47864;52.526;19.672;2022-08-19T01:10:10;100486.47;;;20.88;100.00
61908;BME280;47864;52.526;19.672;2022-08-19T01:12:12;100499.06;;;20.95;100.00
61908;BME280;47864;52.526;19.672;2022-08-19T01:14:15;100499.88;;;20.95;100.00
61908;BME280;47864;52.526;19.672;2022-08-19T01:16:19;100501.03;;;21.06;100.00
61908;BME280;47864;52.526;19.672;2022-08-19T01:18:23;100509.75;;;21.08;100.00
61908;BME280;47864;52.526;19.672;2022-08-19T01:20:26;100512.44;;;21.08;100.00
61908;BME280;47864;52.526;19.672;2022-08-19T01:22:35;100495.94;;;20.98;100.00
61908;BME280;47864;52.526;19.672;2022-08-19T01:24:41;100504.03;;;20.98;100.00
61908;BME280;47864;52.526;19.672;2022-08-19T01:26:50;100503.25;;;20.91;100.00
61908;BME280;47864;52.526;19.672;2022-08-19T01:28:54;100500.22;;;20.80;100.00
61908;BME280;47864;52.526;19.672;2022-08-19T01:31:02;100495.25;;;20.77;100.00
61908;BME280;47864;52.526;19.672;2022-08-19T01:33:08;100491.97;;;20.75;100.00
61908;BME280;47864;52.526;19.672;2022-08-19T01:35:14;100485.50;;;20.76;100.00
61908;BME280;47864;52.526;19.672;2022-08-19T01:37:16;100485.09;;;20.79;100.00
61908;BME280;47864;52.526;19.672;2022-08-19T01:39:28;100484.66;;;20.82;100.00
61908;BME280;47864;52.526;19.672;2022-08-19T01:41:30;100483.84;;;20.82;100.00
61908;BME280;47864;52.526;19.672;2022-08-19T01:43:33;100490.06;;;20.82;100.00
61908;BME280;47864;52.526;19.672;2022-08-19T01:45:35;100491.84;;;20.88;100.00
61908;BME280;47864;52.526;19.672;2022-08-19T01:47:37;100476.72;;;20.87;100.00
61908;BME280;47864;52.526;19.672;2022-08-19T01:49:39;100488.44;;;21.00;100.00
61908;BME280;47864;52.526;19.672;2022-08-19T01:51:41;100487.97;;;21.03;100.00
61908;BME280;47864;52.526;19.672;2022-08-19T01:53:47;100489.22;;;21.07;100.00
61908;BME280;47864;52.526;19.672;2022-08-19T01:55:48;100496.53;;;21.00;100.00
61908;BME280;47864;52.526;19.672;2022-08-19T01:57:55;100496.75;;;20.98;100.00
61908;BME280;47864;52.526;19.672;2022-08-19T01:59:59;100488.88;;;20.97;100.00
61908;BME280;47864;52.526;19.672;2022-08-19T02:02:01;100486.56;;;21.00;100.00
61908;BME280;47864;52.526;19.672;2022-08-19T02:04:04;100485.75;;;21.00;100.00
61908;BME280;47864;52.526;19.672;2022-08-19T02:06:06;100484.09;;;20.99;100.00
61908;BME280;47864;52.526;19.672;2022-08-19T02:08:09;100477.34;;;20.89;100.00
61908;BME280;47864;52.526;19.672;2022-08-19T02:10:13;100489.22;;;20.82;100.00
61908;BME280;47864;52.526;19.672;2022-08-19T02:12:17;100485.91;;;20.80;100.00
61908;BME280;47864;52.526;19.672;2022-08-19T02:14:18;100469.75;;;20.80;100.00
61908;BME280;47864;52.526;19.672;2022-08-19T02:16:21;100477.16;;;20.84;100.00
61908;BME280;47864;52.526;19.672;2022-08-19T02:18:23;100476.09;;;20.85;100.00
61908;BME280;47864;52.526;19.672;2022-08-19T02:20:28;100470.78;;;20.79;100.00
61908;BME280;47864;52.526;19.672;2022-08-19T02:22:30;100469.69;;;20.86;100.00
61908;BME280;47864;52.526;19.672;2022-08-19T02:24:32;100469.84;;;20.92;100.00
61908;BME280;47864;52.526;19.672;2022-08-19T02:26:34;100463.84;;;20.89;100.00
61908;BME280;47864;52.526;19.672;2022-08-19T02:28:36;100459.28;;;20.90;100.00
61908;BME280;47864;52.526;19.672;2022-08-19T02:30:38;100451.84;;;20.85;100.00
61908;BME280;47864;52.526;19.672;2022-08-19T02:32:41;100449.44;;;20.77;100.00
61908;BME280;47864;52.526;19.672;2022-08-19T02:34:46;100448.22;;;20.73;100.00
61908;BME280;47864;52.526;19.672;2022-08-19T02:36:48;100454.38;;;20.80;100.00
61908;BME280;47864;52.526;19.672;2022-08-19T02:38:53;100443.00;;;20.78;100.00
61908;BME280;47864;52.526;19.672;2022-08-19T02:41:34;100449.97;;;20.86;100.00
61908;BME280;47864;52.526;19.672;2022-08-19T02:43:30;100451.34;;;20.95;100.00
61908;BME280;47864;52.526;19.672;2022-08-19T02:45:36;100454.44;;;20.99;100.00
61908;BME280;47864;52.526;19.672;2022-08-19T02:47:41;100460.66;;;20.99;100.00
61908;BME280;47864;52.526;19.672;2022-08-19T02:49:45;100467.03;;;21.05;100.00
61908;BME280;47864;52.526;19.672;2022-08-19T02:51:47;100457.50;;;21.02;100.00
61908;BME280;47864;52.526;19.672;2022-08-19T02:53:49;100463.34;;;20.99;100.00
61908;BME280;47864;52.526;19.672;2022-08-19T02:55:52;100482.38;;;21.04;100.00
61908;BME280;47864;52.526;19.672;2022-08-19T02:57:53;100469.69;;;20.86;100.00
61908;BME280;47864;52.526;19.672;2022-08-19T02:59:55;100478.16;;;20.90;100.00
61908;BME280;47864;52.526;19.672;2022-08-19T03:01:57;100479.19;;;20.89;100.00
61908;BME280;47864;52.526;19.672;2022-08-19T03:04:02;100472.59;;;20.85;100.00
61908;BME280;47864;52.526;19.672;2022-08-19T03:06:12;100465.59;;;20.77;100.00
61908;BME280;47864;52.526;19.672;2022-08-19T03:08:15;100472.28;;;20.75;100.00
61908;BME280;47864;52.526;19.672;2022-08-19T03:10:16;100467.97;;;20.67;100.00
61908;BME280;47864;52.526;19.672;2022-08-19T03:12:18;100473.59;;;20.66;100.00
61908;BME280;47864;52.526;19.672;2022-08-19T03:14:20;100475.25;;;20.67;100.00
61908;BME280;47864;52.526;19.672;2022-08-19T03:16:24;100465.38;;;20.54;100.00
61908;BME280;47864;52.526;19.672;2022-08-19T03:18:26;100471.44;;;20.49;100.00
61908;BME280;47864;52.526;19.672;2022-08-19T03:20:29;100470.81;;;20.47;100.00
61908;BME280;47864;52.526;19.672;2022-08-19T03:22:31;100481.00;;;20.45;100.00
61908;BME280;47864;52.526;19.672;2022-08-19T03:24:33;100469.34;;;20.51;100.00
61908;BME280;47864;52.526;19.672;2022-08-19T03:26:40;100479.84;;;20.60;100.00
61908;BME280;47864;52.526;19.672;2022-08-19T03:28:43;100481.69;;;20.66;100.00
61908;BME280;47864;52.526;19.672;2022-08-19T03:31:03;100470.66;;;20.67;100.00
61908;BME280;47864;52.526;19.672;2022-08-19T03:33:28;100479.25;;;20.82;100.00
61908;BME280;47864;52.526;19.672;2022-08-19T03:35:30;100475.97;;;20.80;100.00
61908;BME280;47864;52.526;19.672;2022-08-19T03:37:32;100479.63;;;20.86;100.00
61908;BME280;47864;52.526;19.672;2022-08-19T03:39:36;100482.88;;;20.95;100.00
61908;BME280;47864;52.526;19.672;2022-08-19T03:41:41;100487.84;;;20.98;100.00
61908;BME280;47864;52.526;19.672;2022-08-19T03:43:46;100481.13;;;21.07;100.00
61908;BME280;47864;52.526;19.672;2022-08-19T03:45:48;100477.09;;;21.16;100.00
61908;BME280;47864;52.526;19.672;2022-08-19T03:47:50;100478.31;;;21.20;100.00
61908;BME280;47864;52.526;19.672;2022-08-19T03:49:52;100473.44;;;21.29;100.00
61908;BME280;47864;52.526;19.672;2022-08-19T03:51:56;100481.94;;;21.32;100.00
61908;BME280;47864;52.526;19.672;2022-08-19T03:54:00;100469.47;;;21.31;100.00
61908;BME280;47864;52.526;19.672;2022-08-19T03:56:03;100470.44;;;21.37;100.00
61908;BME280;47864;52.526;19.672;2022-08-19T03:58:05;100460.69;;;21.36;100.00
61908;BME280;47864;52.526;19.672;2022-08-19T04:00:07;100450.81;;;21.30;100.00
61908;BME280;47864;52.526;19.672;2022-08-19T04:02:14;100451.56;;;21.37;100.00
61908;BME280;47864;52.526;19.672;2022-08-19T04:04:16;100448.94;;;21.48;100.00
61908;BME280;47864;52.526;19.672;2022-08-19T04:06:26;100444.91;;;21.57;100.00
61908;BME280;47864;52.526;19.672;2022-08-19T04:08:28;100445.56;;;21.53;100.00
61908;BME280;47864;52.526;19.672;2022-08-19T04:10:30;100441.28;;;21.63;100.00
61908;BME280;47864;52.526;19.672;2022-08-19T04:12:32;100441.78;;;21.72;100.00
61908;BME280;47864;52.526;19.672;2022-08-19T04:14:34;100442.31;;;21.81;100.00
61908;BME280;47864;52.526;19.672;2022-08-19T04:16:36;100438.56;;;21.82;100.00
61908;BME280;47864;52.526;19.672;2022-08-19T04:18:39;100431.94;;;21.78;100.00
61908;BME280;47864;52.526;19.672;2022-08-19T04:20:45;100448.88;;;21.85;100.00
61908;BME280;47864;52.526;19.672;2022-08-19T04:22:48;100453.53;;;21.96;100.00
61908;BME280;47864;52.526;19.672;2022-08-19T04:24:50;100459.38;;;22.11;100.00
61908;BME280;47864;52.526;19.672;2022-08-19T04:26:52;100459.31;;;22.29;100.00
61908;BME280;47864;52.526;19.672;2022-08-19T04:28:54;100461.91;;;22.36;100.00
61908;BME280;47864;52.526;19.672;2022-08-19T04:30:56;100458.75;;;22.51;100.00
61908;BME280;47864;52.526;19.672;2022-08-19T04:32:58;100459.53;;;22.28;100.00
61908;BME280;47864;52.526;19.672;2022-08-19T04:35:00;100455.22;;;22.38;100.00
61908;BME280;47864;52.526;19.672;2022-08-19T04:37:19;100463.19;;;22.87;100.00
61908;BME280;47864;52.526;19.672;2022-08-19T04:39:24;100473.09;;;23.04;100.00
61908;BME280;47864;52.526;19.672;2022-08-19T04:41:26;100465.06;;;23.21;100.00
61908;BME280;47864;52.526;19.672;2022-08-19T04:43:28;100471.31;;;22.98;100.00
61908;BME280;47864;52.526;19.672;2022-08-19T04:45:30;100470.00;;;23.24;100.00
61908;BME280;47864;52.526;19.672;2022-08-19T04:47:44;100471.91;;;23.87;99.68
61908;BME280;47864;52.526;19.672;2022-08-19T04:49:58;100486.00;;;24.01;98.31
61908;BME280;47864;52.526;19.672;2022-08-19T04:52:00;100484.78;;;23.80;98.38
61908;BME280;47864;52.526;19.672;2022-08-19T04:54:03;100491.41;;;23.61;99.87
61908;BME280;47864;52.526;19.672;2022-08-19T04:56:11;100483.16;;;23.44;100.00
61908;BME280;47864;52.526;19.672;2022-08-19T04:58:14;100479.53;;;23.50;100.00
61908;BME280;47864;52.526;19.672;2022-08-19T05:00:16;100472.56;;;23.31;100.00
61908;BME280;47864;52.526;19.672;2022-08-19T05:02:17;100478.84;;;23.20;100.00
61908;BME280;47864;52.526;19.672;2022-08-19T05:04:19;100474.22;;;23.32;100.00
61908;BME280;47864;52.526;19.672;2022-08-19T05:06:22;100475.75;;;23.39;100.00
61908;BME280;47864;52.526;19.672;2022-08-19T05:08:24;100481.28;;;23.44;100.00
61908;BME280;47864;52.526;19.672;2022-08-19T05:10:35;100478.59;;;23.44;100.00
61908;BME280;47864;52.526;19.672;2022-08-19T05:12:37;100477.28;;;23.59;100.00
61908;BME280;47864;52.526;19.672;2022-08-19T05:14:38;100473.34;;;23.78;100.00
61908;BME280;47864;52.526;19.672;2022-08-19T05:16:40;100474.31;;;23.72;98.90
61908;BME280;47864;52.526;19.672;2022-08-19T05:18:42;100475.19;;;23.49;100.00
61908;BME280;47864;52.526;19.672;2022-08-19T05:20:44;100472.22;;;23.62;100.00
61908;BME280;47864;52.526;19.672;2022-08-19T05:22:46;100474.06;;;23.73;99.41
61908;BME280;47864;52.526;19.672;2022-08-19T05:24:49;100475.81;;;24.08;97.31
61908;BME280;47864;52.526;19.672;2022-08-19T05:27:10;100475.06;;;24.24;96.43
61908;BME280;47864;52.526;19.672;2022-08-19T05:29:14;100471.78;;;24.22;95.68
61908;BME280;47864;52.526;19.672;2022-08-19T05:31:16;100465.81;;;24.08;95.71
61908;BME280;47864;52.526;19.672;2022-08-19T05:33:18;100454.00;;;24.59;94.32
61908;BME280;47864;52.526;19.672;2022-08-19T05:35:20;100459.44;;;24.76;92.83
61908;BME280;47864;52.526;19.672;2022-08-19T05:37:22;100461.50;;;24.24;94.60
61908;BME280;47864;52.526;19.672;2022-08-19T05:39:26;100465.72;;;24.32;95.63
61908;BME280;47864;52.526;19.672;2022-08-19T05:41:28;100470.75;;;24.40;94.04
61908;BME280;47864;52.526;19.672;2022-08-19T05:43:30;100463.25;;;24.30;95.43
61908;BME280;47864;52.526;19.672;2022-08-19T05:45:32;100464.13;;;24.19;95.64
61908;BME280;47864;52.526;19.672;2022-08-19T05:47:39;100467.09;;;24.06;97.15
61908;BME280;47864;52.526;19.672;2022-08-19T05:49:43;100467.09;;;24.06;96.87
61908;BME280;47864;52.526;19.672;2022-08-19T05:51:45;100474.69;;;24.04;96.97
61908;BME280;47864;52.526;19.672;2022-08-19T05:53:47;100470.41;;;24.08;97.29
61908;BME280;47864;52.526;19.672;2022-08-19T05:55:49;100477.38;;;24.32;95.35
61908;BME280;47864;52.526;19.672;2022-08-19T05:57:51;100473.16;;;24.70;94.08
61908;BME280;47864;52.526;19.672;2022-08-19T05:59:53;100484.53;;;25.00;91.65
61908;BME280;47864;52.526;19.672;2022-08-19T06:01:59;100484.25;;;25.18;90.40
61908;BME280;47864;52.526;19.672;2022-08-19T06:04:01;100482.94;;;25.04;90.35
61908;BME280;47864;52.526;19.672;2022-08-19T06:06:04;100490.22;;;25.20;90.61
61908;BME280;47864;52.526;19.672;2022-08-19T06:08:06;100456.66;;;25.26;88.03
61908;BME280;47864;52.526;19.672;2022-08-19T06:10:09;100490.22;;;25.75;87.32
61908;BME280;47864;52.526;19.672;2022-08-19T06:12:11;100486.78;;;25.85;86.07
61908;BME280;47864;52.526;19.672;2022-08-19T06:14:18;100475.63;;;26.08;84.49
61908;BME280;47864;52.526;19.672;2022-08-19T06:16:28;100497.16;;;26.69;82.65
61908;BME280;47864;52.526;19.672;2022-08-19T06:18:30;100496.03;;;26.92;81.27
61908;BME280;47864;52.526;19.672;2022-08-19T06:20:32;100495.91;;;27.13;79.97
61908;BME280;47864;52.526;19.672;2022-08-19T06:22:54;100501.22;;;27.35;77.91
61908;BME280;47864;52.526;19.672;2022-08-19T06:24:56;100488.00;;;27.54;75.99
61908;BME280;47864;52.526;19.672;2022-08-19T06:26:59;100467.94;;;27.28;76.19
61908;BME280;47864;52.526;19.672;2022-08-19T06:29:04;100477.75;;;27.24;76.30
61908;BME280;47864;52.526;19.672;2022-08-19T06:31:06;100483.81;;;27.98;74.77
61908;BME280;47864;52.526;19.672;2022-08-19T06:33:08;100485.03;;;28.48;73.05
61908;BME280;47864;52.526;19.672;2022-08-19T06:35:10;100477.66;;;28.74;70.14
61908;BME280;47864;52.526;19.672;2022-08-19T06:37:12;100479.03;;;28.61;70.18
61908;BME280;47864;52.526;19.672;2022-08-19T06:39:18;100481.16;;;28.19;70.83
61908;BME280;47864;52.526;19.672;2022-08-19T06:41:21;100484.66;;;28.14;71.91
61908;BME280;47864;52.526;19.672;2022-08-19T06:43:22;100474.91;;;28.44;70.79
61908;BME280;47864;52.526;19.672;2022-08-19T06:45:29;100472.44;;;28.22;70.09
61908;BME280;47864;52.526;19.672;2022-08-19T06:47:35;100481.72;;;28.31;71.38
61908;BME280;47864;52.526;19.672;2022-08-19T06:49:37;100479.81;;;28.16;71.70
61908;BME280;47864;52.526;19.672;2022-08-19T06:51:46;100479.28;;;28.39;70.88
61908;BME280;47864;52.526;19.672;2022-08-19T06:53:52;100480.94;;;28.86;69.35
61908;BME280;47864;52.526;19.672;2022-08-19T06:55:56;100482.78;;;28.20;69.78
61908;BME280;47864;52.526;19.672;2022-08-19T06:57:57;100487.38;;;28.04;70.64
61908;BME280;47864;52.526;19.672;2022-08-19T07:00:04;100489.91;;;28.26;69.98
61908;BME280;47864;52.526;19.672;2022-08-19T07:02:10;100476.81;;;28.43;69.05
61908;BME280;47864;52.526;19.672;2022-08-19T07:04:14;100476.03;;;28.48;69.18
61908;BME280;47864;52.526;19.672;2022-08-19T07:06:17;100473.84;;;28.70;68.12
61908;BME280;47864;52.526;19.672;2022-08-19T07:08:39;100468.38;;;28.39;68.69
61908;BME280;47864;52.526;19.672;2022-08-19T07:10:46;100460.19;;;28.55;69.07
61908;BME280;47864;52.526;19.672;2022-08-19T07:12:48;100458.25;;;29.01;67.43
61908;BME280;47864;52.526;19.672;2022-08-19T07:14:50;100465.34;;;28.66;68.64
61908;BME280;47864;52.526;19.672;2022-08-19T07:16:54;100445.19;;;28.88;66.68
61908;BME280;47864;52.526;19.672;2022-08-19T07:18:56;100453.06;;;29.04;66.36
61908;BME280;47864;52.526;19.672;2022-08-19T07:21:05;100454.63;;;29.46;65.64
61908;BME280;47864;52.526;19.672;2022-08-19T07:23:10;100457.03;;;29.58;65.09
61908;BME280;47864;52.526;19.672;2022-08-19T07:25:17;100457.28;;;29.61;65.06
61908;BME280;47864;52.526;19.672;2022-08-19T07:27:19;100468.69;;;28.79;67.07
61908;BME280;47864;52.526;19.672;2022-08-19T07:29:24;100465.06;;;29.08;66.70
61908;BME280;47864;52.526;19.672;2022-08-19T07:31:29;100470.00;;;28.51;68.81
61908;BME280;47864;52.526;19.672;2022-08-19T07:33:32;100469.91;;;28.10;69.66
61908;BME280;47864;52.526;19.672;2022-08-19T07:35:34;100471.50;;;27.81;71.89
61908;BME280;47864;52.526;19.672;2022-08-19T07:37:36;100465.63;;;28.45;70.87
61908;BME280;47864;52.526;19.672;2022-08-19T07:39:38;100468.41;;;28.90;67.57
61908;BME280;47864;52.526;19.672;2022-08-19T07:41:41;100466.75;;;28.89;69.12
61908;BME280;47864;52.526;19.672;2022-08-19T07:43:43;100454.44;;;28.92;68.93
61908;BME280;47864;52.526;19.672;2022-08-19T07:45:45;100459.66;;;28.98;67.65
61908;BME280;47864;52.526;19.672;2022-08-19T07:47:47;100464.47;;;29.42;66.01
61908;BME280;47864;52.526;19.672;2022-08-19T07:49:51;100460.22;;;29.75;65.15
61908;BME280;47864;52.526;19.672;2022-08-19T07:51:57;100466.06;;;29.53;65.06
61908;BME280;47864;52.526;19.672;2022-08-19T07:53:59;100457.06;;;29.32;65.95
61908;BME280;47864;52.526;19.672;2022-08-19T07:56:02;100459.72;;;29.73;64.72
61908;BME280;47864;52.526;19.672;2022-08-19T07:58:04;100464.19;;;29.43;66.07
61908;BME280;47864;52.526;19.672;2022-08-19T08:00:07;100465.56;;;29.41;65.87
61908;BME280;47864;52.526;19.672;2022-08-19T08:02:09;100476.31;;;29.86;65.60
61908;BME280;47864;52.526;19.672;2022-08-19T08:04:11;100480.72;;;29.77;64.17
61908;BME280;47864;52.526;19.672;2022-08-19T08:06:14;100484.75;;;30.00;64.52
61908;BME280;47864;52.526;19.672;2022-08-19T08:08:16;100480.34;;;29.40;65.06
61908;BME280;47864;52.526;19.672;2022-08-19T08:10:18;100470.00;;;29.06;65.72
61908;BME280;47864;52.526;19.672;2022-08-19T08:12:25;100480.13;;;28.96;65.65
61908;BME280;47864;52.526;19.672;2022-08-19T08:14:49;100477.00;;;29.53;64.70
61908;BME280;47864;52.526;19.672;2022-08-19T08:16:57;100472.38;;;29.33;65.24
61908;BME280;47864;52.526;19.672;2022-08-19T08:18:59;100462.22;;;29.64;65.65
61908;BME280;47864;52.526;19.672;2022-08-19T08:21:03;100459.53;;;29.44;64.91
61908;BME280;47864;52.526;19.672;2022-08-19T08:23:12;100457.38;;;29.31;65.26
61908;BME280;47864;52.526;19.672;2022-08-19T08:25:18;100464.88;;;29.79;65.25
61908;BME280;47864;52.526;19.672;2022-08-19T08:27:21;100467.00;;;29.87;63.29
61908;BME280;47864;52.526;19.672;2022-08-19T08:29:27;100466.78;;;29.74;63.00
61908;BME280;47864;52.526;19.672;2022-08-19T08:31:35;100470.88;;;29.76;63.58
61908;BME280;47864;52.526;19.672;2022-08-19T08:33:37;100471.59;;;30.02;61.03
61908;BME280;47864;52.526;19.672;2022-08-19T08:35:43;100475.63;;;29.56;62.99
61908;BME280;47864;52.526;19.672;2022-08-19T08:37:46;100465.91;;;29.94;61.47
61908;BME280;47864;52.526;19.672;2022-08-19T08:39:51;100478.56;;;30.23;60.69
61908;BME280;47864;52.526;19.672;2022-08-19T08:42:13;100472.88;;;30.15;60.06
61908;BME280;47864;52.526;19.672;2022-08-19T08:46:50;100490.81;;;29.82;59.13
61908;BME280;47864;52.526;19.672;2022-08-19T08:51:21;100491.06;;;29.90;61.04
61908;BME280;47864;52.526;19.672;2022-08-19T08:53:25;100495.09;;;30.08;59.79
61908;BME280;47864;52.526;19.672;2022-08-19T08:55:32;100497.66;;;29.89;60.68
61908;BME280;47864;52.526;19.672;2022-08-19T08:59:50;100497.13;;;29.77;60.81
61908;BME280;47864;52.526;19.672;2022-08-19T09:01:54;100493.03;;;29.80;60.36
61908;BME280;47864;52.526;19.672;2022-08-19T09:03:56;100487.19;;;29.37;61.44
61908;BME280;47864;52.526;19.672;2022-08-19T09:06:04;100491.47;;;29.59;61.85
61908;BME280;47864;52.526;19.672;2022-08-19T09:10:57;100478.50;;;29.95;60.08
61908;BME280;47864;52.526;19.672;2022-08-19T09:15:13;100475.53;;;29.76;61.86
61908;BME280;47864;52.526;19.672;2022-08-19T09:17:17;100471.34;;;30.04;60.87
61908;BME280;47864;52.526;19.672;2022-08-19T09:19:19;100475.31;;;30.21;60.66
61908;BME280;47864;52.526;19.672;2022-08-19T09:21:23;100475.34;;;30.60;60.32
61908;BME280;47864;52.526;19.672;2022-08-19T09:23:35;100477.97;;;30.37;59.79
61908;BME280;47864;52.526;19.672;2022-08-19T09:25:36;100476.31;;;30.36;59.76
61908;BME280;47864;52.526;19.672;2022-08-19T09:27:40;100469.16;;;30.40;59.43
61908;BME280;47864;52.526;19.672;2022-08-19T09:29:44;100470.41;;;30.57;58.15
61908;BME280;47864;52.526;19.672;2022-08-19T09:31:47;100475.06;;;30.57;58.24
61908;BME280;47864;52.526;19.672;2022-08-19T09:33:49;100474.78;;;30.58;58.73
61908;BME280;47864;52.526;19.672;2022-08-19T09:36:03;100475.25;;;30.71;57.68
61908;BME280;47864;52.526;19.672;2022-08-19T09:38:09;100476.75;;;30.53;58.15
61908;BME280;47864;52.526;19.672;2022-08-19T09:40:12;100471.59;;;30.41;57.75
61908;BME280;47864;52.526;19.672;2022-08-19T09:42:14;100467.69;;;30.57;58.12
61908;BME280;47864;52.526;19.672;2022-08-19T09:44:30;100468.97;;;30.70;57.54
61908;BME280;47864;52.526;19.672;2022-08-19T09:46:32;100468.47;;;30.63;57.80
61908;BME280;47864;52.526;19.672;2022-08-19T09:48:35;100468.81;;;30.07;59.11
61908;BME280;47864;52.526;19.672;2022-08-19T09:50:37;100469.91;;;30.55;58.10
61908;BME280;47864;52.526;19.672;2022-08-19T09:52:52;100464.34;;;30.26;58.63
61908;BME280;47864;52.526;19.672;2022-08-19T09:54:58;100472.97;;;30.05;58.77
61908;BME280;47864;52.526;19.672;2022-08-19T09:57:01;100461.13;;;30.14;58.46
61908;BME280;47864;52.526;19.672;2022-08-19T09:59:07;100463.34;;;30.12;58.54
61908;BME280;47864;52.526;19.672;2022-08-19T10:01:09;100453.16;;;30.57;57.96
61908;BME280;47864;52.526;19.672;2022-08-19T10:03:11;100450.13;;;30.63;57.17
61908;BME280;47864;52.526;19.672;2022-08-19T10:05:12;100451.38;;;30.76;57.71
61908;BME280;47864;52.526;19.672;2022-08-19T10:07:29;100448.56;;;30.52;58.07
61908;BME280;47864;52.526;19.672;2022-08-19T10:09:37;100451.22;;;30.62;57.41
61908;BME280;47864;52.526;19.672;2022-08-19T10:11:41;100453.03;;;30.72;58.04
61908;BME280;47864;52.526;19.672;2022-08-19T10:13:54;100453.72;;;31.17;57.65
61908;BME280;47864;52.526;19.672;2022-08-19T10:16:03;100452.53;;;31.47;54.66
61908;BME280;47864;52.526;19.672;2022-08-19T10:18:05;100448.72;;;31.24;54.89
61908;BME280;47864;52.526;19.672;2022-08-19T10:20:08;100444.69;;;31.16;54.37
61908;BME280;47864;52.526;19.672;2022-08-19T10:22:10;100445.22;;;31.18;55.98
61908;BME280;47864;52.526;19.672;2022-08-19T10:24:12;100441.94;;;31.40;55.74
61908;BME280;47864;52.526;19.672;2022-08-19T10:26:18;100434.31;;;31.37;54.28
61908;BME280;47864;52.526;19.672;2022-08-19T10:28:21;100433.03;;;31.72;55.29
61908;BME280;47864;52.526;19.672;2022-08-19T10:30:24;100431.09;;;31.54;54.20
61908;BME280;47864;52.526;19.672;2022-08-19T10:32:26;100432.53;;;31.22;53.75
61908;BME280;47864;52.526;19.672;2022-08-19T10:34:36;100432.78;;;31.50;54.23
61908;BME280;47864;52.526;19.672;2022-08-19T10:36:49;100431.97;;;31.25;53.78
61908;BME280;47864;52.526;19.672;2022-08-19T10:38:59;100433.72;;;31.16;54.38
61908;BME280;47864;52.526;19.672;2022-08-19T10:41:13;100430.09;;;31.45;55.03
61908;BME280;47864;52.526;19.672;2022-08-19T10:43:15;100438.19;;;31.79;53.67
61908;BME280;47864;52.526;19.672;2022-08-19T10:45:16;100433.47;;;31.60;53.17
61908;BME280;47864;52.526;19.672;2022-08-19T10:47:18;100440.72;;;31.51;53.37
61908;BME280;47864;52.526;19.672;2022-08-19T10:49:26;100443.19;;;31.71;54.10
61908;BME280;47864;52.526;19.672;2022-08-19T10:51:29;100443.84;;;31.63;53.92